Time;durP1;ratioP1;P1;durP2;ratioP2;P2;SDS_P1;SDS_P2;PMS_P1;PMS_P2;Temp;Humidity;BMP_temperature;BMP_pressure;BME280_temperature;BME280_humidity;BME280_pressure;Samples;Min_cycle;Max_cycle;Signal;HPM_P1;HPM_P2
2023/06/16 00:04:03;;;;;;;3.13;1.50;;;32.20;46.20;;;;;;10520705;28;20135;-49
2023/06/16 00:09:05;;;;;;;2.72;1.60;;;32.10;46.20;;;;;;10540449;28;20044;-46
2023/06/16 00:14:08;;;;;;;3.22;1.40;;;32.10;46.30;;;;;;10523447;28;20056;-46
2023/06/16 00:19:10;;;;;;;2.75;1.50;;;32.00;46.30;;;;;;10512651;28;20139;-45
2023/06/16 00:24:12;;;;;;;3.15;1.50;;;32.00;46.40;;;;;;10523831;28;20056;-47
2023/06/16 00:29:15;;;;;;;4.55;1.40;;;32.00;46.50;;;;;;10531930;28;20731;-43
2023/06/16 00:34:17;;;;;;;2.50;1.27;;;31.90;46.50;;;;;;10526314;28;20134;-51
2023/06/16 00:39:19;;;;;;;2.33;1.67;;;31.80;46.50;;;;;;10518177;28;20233;-51
2023/06/16 00:44:22;;;;;;;3.45;1.42;;;31.80;46.60;;;;;;10521233;28;20053;-49
2023/06/16 00:49:24;;;;;;;1.58;1.30;;;31.70;46.60;;;;;;10522776;28;20688;-48
2023/06/16 00:54:26;;;;;;;4.00;1.65;;;31.70;46.60;;;;;;10516052;28;20139;-49
2023/06/16 00:59:30;;;;;;;2.08;1.50;;;31.60;46.70;;;;;;10521514;28;20052;-49
2023/06/16 01:04:32;;;;;;;2.67;1.88;;;31.60;46.70;;;;;;10527177;28;20130;-45
2023/06/16 01:09:43;;;;;;;3.00;1.90;;;31.60;46.80;;;;;;10525333;28;20139;-46
2023/06/16 01:14:57;;;;;;;2.90;1.30;;;31.50;46.80;;;;;;10529745;28;20054;-43
2023/06/16 01:20:07;;;;;;;2.55;1.42;;;31.40;46.80;;;;;;10524053;28;20400;-44
2023/06/16 01:25:14;;;;;;;5.05;2.08;;;31.40;47.50;;;;;;10526244;28;20049;-45
2023/06/16 01:30:17;;;;;;;2.35;1.35;;;31.30;46.90;;;;;;10510268;28;20055;-50
2023/06/16 01:35:21;;;;;;;2.88;1.60;;;31.30;46.90;;;;;;10527448;28;20060;-49
2023/06/16 01:40:25;;;;;;;2.30;1.67;;;31.30;47.00;;;;;;10536393;28;20136;-46
2023/06/16 01:45:28;;;;;;;3.65;1.58;;;31.20;47.60;;;;;;10523102;28;20117;-44
2023/06/16 01:50:31;;;;;;;4.13;1.77;;;31.20;47.10;;;;;;10524254;28;20044;-47
2023/06/16 01:55:34;;;;;;;7.90;1.60;;;31.10;47.00;;;;;;10514552;28;20052;-47
2023/06/16 02:00:40;;;;;;;2.78;1.70;;;31.10;47.00;;;;;;10533154;28;20443;-46
2023/06/16 02:05:47;;;;;;;3.75;1.92;;;31.00;47.10;;;;;;10527259;28;20059;-43
2023/06/16 02:10:51;;;;;;;3.83;1.65;;;31.00;47.10;;;;;;10532697;28;20040;-46
2023/06/16 02:15:53;;;;;;;3.72;1.48;;;30.90;47.10;;;;;;10517274;28;20044;-44
2023/06/16 02:20:55;;;;;;;3.92;1.75;;;30.90;47.10;;;;;;10518831;28;20097;-42
2023/06/16 02:25:59;;;;;;;1.65;1.48;;;30.90;47.20;;;;;;10534927;28;20040;-42
2023/06/16 02:31:01;;;;;;;3.05;1.67;;;30.80;47.10;;;;;;10534592;28;20040;-46
2023/06/16 02:36:03;;;;;;;1.63;1.40;;;30.80;47.10;;;;;;10514132;28;20080;-44
2023/06/16 02:41:06;;;;;;;1.73;1.60;;;30.80;47.20;;;;;;10526526;28;20044;-42
2023/06/16 02:46:08;;;;;;;2.70;1.65;;;30.80;47.20;;;;;;10535092;28;20082;-42
2023/06/16 02:51:10;;;;;;;2.65;1.75;;;30.70;47.10;;;;;;10523207;28;20473;-44
2023/06/16 02:56:14;;;;;;;1.98;1.70;;;30.70;47.10;;;;;;10523405;28;20052;-40
2023/06/16 03:15:30;;;;;;;2.07;1.87;;;30.60;46.50;;;;;;10519558;27;20110;-42
2023/06/16 03:20:34;;;;;;;2.83;1.88;;;30.50;47.20;;;;;;10530659;28;20138;-42
2023/06/16 03:25:36;;;;;;;3.45;2.22;;;30.40;47.10;;;;;;10529104;28;20040;-43
2023/06/16 03:30:40;;;;;;;1.92;1.73;;;30.30;47.10;;;;;;10532198;28;20130;-44
2023/06/16 03:35:42;;;;;;;2.88;1.98;;;30.30;47.10;;;;;;10533006;28;20048;-42
2023/06/16 03:40:43;;;;;;;4.93;1.75;;;30.30;47.20;;;;;;10529331;28;20136;-41
2023/06/16 03:45:47;;;;;;;7.05;2.05;;;30.30;47.10;;;;;;10528870;28;20072;-44
2023/06/16 03:50:50;;;;;;;1.90;1.70;;;30.20;47.00;;;;;;10528067;28;20106;-43
2023/06/16 03:55:52;;;;;;;2.72;1.90;;;30.20;47.60;;;;;;10514977;28;20131;-42
2023/06/16 04:00:56;;;;;;;3.38;1.92;;;30.20;47.00;;;;;;10527710;28;20045;-43
2023/06/16 04:05:58;;;;;;;4.13;1.73;;;30.10;47.00;;;;;;10534709;28;20394;-43
2023/06/16 04:11:00;;;;;;;3.22;1.83;;;30.10;47.00;;;;;;10521547;28;20056;-42
2023/06/16 04:16:03;;;;;;;2.33;1.92;;;30.00;47.10;;;;;;10528308;28;20075;-42
2023/06/16 04:21:05;;;;;;;2.38;1.90;;;30.00;47.10;;;;;;10527649;28;20140;-44
2023/06/16 04:26:08;;;;;;;2.05;1.85;;;30.00;47.20;;;;;;10503727;28;20551;-41
2023/06/16 04:31:12;;;;;;;3.35;2.40;;;30.00;47.30;;;;;;10491492;28;20481;-43
2023/06/16 04:36:14;;;;;;;4.22;2.08;;;29.90;47.30;;;;;;10497434;28;20044;-41
2023/06/16 04:41:16;;;;;;;4.78;2.28;;;30.00;47.30;;;;;;10494946;28;20429;-43
2023/06/16 04:46:19;;;;;;;7.00;2.38;;;30.00;47.10;;;;;;10497842;28;20114;-42
2023/06/16 04:51:21;;;;;;;4.95;2.17;;;29.90;47.00;;;;;;10486766;28;20195;-41
2023/06/16 04:56:23;;;;;;;8.88;1.98;;;30.00;46.90;;;;;;10503860;28;20041;-42
2023/06/16 05:01:26;;;;;;;5.03;2.28;;;29.90;46.80;;;;;;10492148;28;20408;-42
2023/06/16 05:06:28;;;;;;;8.23;2.53;;;29.90;46.70;;;;;;10498328;28;20053;-42
2023/06/16 05:11:30;;;;;;;7.43;5.57;;;29.90;46.60;;;;;;10497417;28;20048;-42
2023/06/16 05:16:34;;;;;;;8.57;6.15;;;29.90;46.50;;;;;;10497528;28;20048;-40
2023/06/16 05:21:36;;;;;;;7.78;6.13;;;29.90;46.40;;;;;;10489308;28;20131;-42
2023/06/16 05:26:38;;;;;;;8.52;5.32;;;29.90;46.40;;;;;;10495867;28;20119;-42
2023/06/16 05:31:41;;;;;;;5.38;4.40;;;29.90;46.40;;;;;;10491872;28;20049;-42
2023/06/16 05:36:43;;;;;;;6.43;4.00;;;29.90;46.40;;;;;;10496649;28;20058;-38
2023/06/16 05:41:44;;;;;;;5.82;3.75;;;29.90;46.50;;;;;;10473812;28;20128;-36
2023/06/16 05:46:48;;;;;;;10.27;3.75;;;29.90;49.20;;;;;;10492475;28;20048;-39
2023/06/16 05:51:51;;;;;;;5.15;2.30;;;30.00;50.20;;;;;;10483407;28;20147;-41
2023/06/16 05:57:00;;;;;;;6.82;2.28;;;30.00;49.20;;;;;;10456970;28;20090;-41
2023/06/16 06:02:03;;;;;;;4.80;2.30;;;29.90;47.50;;;;;;10475493;28;20041;-37
2023/06/16 06:25:44;;;;;;;4.68;3.00;;;29.60;47.20;;;;;;10504760;28;20542;-39
2023/06/16 06:43:05;;;;;;;3.95;2.70;;;28.60;47.90;;;;;;10520290;28;20044;-35
2023/06/16 06:48:12;;;;;;;3.65;2.28;;;29.00;48.00;;;;;;10515573;28;20064;-37
2023/06/16 07:00:02;;;;;;;2.30;2.03;;;29.40;48.00;;;;;;10494829;28;20051;-40
2023/06/16 07:06:00;;;;;;;3.25;2.38;;;29.60;52.80;;;;;;10532838;28;20058;-38
2023/06/16 07:17:55;;;;;;;11.20;2.10;;;29.20;48.10;;;;;;10499899;28;20044;-35
2023/06/16 07:22:59;;;;;;;5.15;2.17;;;29.40;47.50;;;;;;10434560;28;20057;-37
2023/06/16 07:28:01;;;;;;;2.08;1.85;;;29.50;48.10;;;;;;10446467;28;20132;-35
2023/06/16 07:33:03;;;;;;;5.70;2.47;;;29.50;47.50;;;;;;10443995;28;20112;-42
2023/06/16 07:38:06;;;;;;;3.20;2.10;;;29.50;47.30;;;;;;10445750;28;20410;-41
2023/06/16 07:43:10;;;;;;;2.88;1.85;;;29.50;47.10;;;;;;10372448;28;20060;-37
2023/06/16 07:48:11;;;;;;;3.63;2.08;;;29.60;47.10;;;;;;10446620;28;20144;-37
2023/06/16 07:53:15;;;;;;;2.90;2.08;;;29.60;46.90;;;;;;10489390;28;20187;-43
2023/06/16 07:58:17;;;;;;;6.20;2.95;;;29.50;47.90;;;;;;10484440;28;20521;-43
2023/06/16 08:03:19;;;;;;;5.35;3.60;;;29.30;47.70;;;;;;10370125;28;20037;-45
2023/06/16 08:08:23;;;;;;;4.85;3.10;;;29.30;46.90;;;;;;10456187;28;20452;-37
2023/06/16 08:13:26;;;;;;;4.85;3.10;;;29.30;52.80;;;;;;10459331;28;20052;-31
2023/06/16 08:18:28;;;;;;;7.50;3.08;;;29.30;49.90;;;;;;10454719;28;20720;-33
2023/06/16 08:23:31;;;;;;;5.40;3.20;;;29.50;50.70;;;;;;10436885;28;20048;-40
2023/06/16 08:28:34;;;;;;;4.85;3.30;;;29.20;49.50;;;;;;10454102;28;20037;-33
2023/06/16 08:33:36;;;;;;;6.07;3.20;;;28.90;47.40;;;;;;10452900;28;20076;-34
2023/06/16 08:38:41;;;;;;;5.35;2.85;;;28.70;49.10;;;;;;10449729;28;20140;-33
2023/06/16 08:43:44;;;;;;;3.88;2.80;;;28.80;49.10;;;;;;10452899;28;20524;-35
2023/06/16 08:48:46;;;;;;;3.95;2.72;;;29.00;48.50;;;;;;10449218;28;20535;-32
2023/06/16 08:53:52;;;;;;;5.40;3.25;;;28.90;48.60;;;;;;10451832;28;20170;-35
2023/06/16 08:58:57;;;;;;;3.45;2.67;;;29.00;47.90;;;;;;10452445;28;20041;-33
2023/06/16 09:03:59;;;;;;;5.45;2.55;;;28.90;46.90;;;;;;10438339;28;20042;-34
2023/06/16 09:09:03;;;;;;;2.85;2.28;;;29.20;47.80;;;;;;10365484;28;20053;-35
2023/06/16 09:14:11;;;;;;;7.63;2.40;;;29.30;47.70;;;;;;10443987;28;20107;-44
2023/06/16 09:19:13;;;;;;;3.53;2.50;;;29.10;48.00;;;;;;10450227;28;20037;-34
2023/06/16 09:24:16;;;;;;;4.53;2.30;;;29.20;47.70;;;;;;10490694;28;20075;-39
2023/06/16 09:29:23;;;;;;;6.15;2.35;;;29.10;47.90;;;;;;10489391;28;20128;-34
2023/06/16 09:34:33;;;;;;;3.53;2.35;;;29.40;45.40;;;;;;10393628;28;20056;-34
2023/06/16 09:39:36;;;;;;;5.60;2.08;;;29.40;47.20;;;;;;10489464;28;20049;-37
2023/06/16 09:44:38;;;;;;;2.40;1.98;;;29.50;47.10;;;;;;10492330;28;20453;-39
2023/06/16 09:49:40;;;;;;;3.38;2.58;;;29.70;46.80;;;;;;10486009;28;20757;-37
2023/06/16 09:54:43;;;;;;;6.05;2.42;;;29.50;47.00;;;;;;10499523;28;20049;-36
2023/06/16 09:59:45;;;;;;;5.38;2.88;;;29.80;47.10;;;;;;10486468;28;20411;-34
2023/06/16 10:04:47;;;;;;;2.80;1.98;;;29.70;47.40;;;;;;10487756;28;20137;-34
2023/06/16 10:09:52;;;;;;;3.05;2.45;;;28.90;48.20;;;;;;10489987;28;20124;-37
2023/06/16 10:14:56;;;;;;;4.63;2.17;;;27.10;50.60;;;;;;10489354;28;20461;-32
2023/06/16 10:20:00;;;;;;;11.60;3.00;;;28.30;50.10;;;;;;10486841;28;20499;-34
2023/06/16 10:25:04;;;;;;;7.38;3.17;;;26.40;44.90;;;;;;10488004;28;20152;-35
2023/06/16 10:30:09;;;;;;;10.50;3.17;;;26.00;51.40;;;;;;10489773;28;20053;-37
2023/06/16 10:35:13;;;;;;;4.45;2.75;;;25.80;46.00;;;;;;10489490;28;20048;-37
2023/06/16 10:40:19;;;;;;;7.05;3.20;;;26.50;45.70;;;;;;10488020;28;20493;-36
2023/06/16 10:45:25;;;;;;;3.88;2.63;;;25.20;45.60;;;;;;10489597;28;20071;-33
2023/06/16 10:50:32;;;;;;;2.80;2.38;;;26.50;49.50;;;;;;10489063;28;20127;-34
2023/06/16 10:55:36;;;;;;;3.75;2.70;;;27.70;45.70;;;;;;10489137;28;20222;-39
2023/06/16 11:00:42;;;;;;;4.38;2.38;;;26.20;49.60;;;;;;10485299;28;20097;-37
2023/06/16 11:05:48;;;;;;;8.25;4.35;;;27.60;47.80;;;;;;10488899;28;20076;-34
2023/06/16 11:10:53;;;;;;;4.25;2.85;;;27.40;43.40;;;;;;10489468;28;20044;-36
2023/06/16 11:15:55;;;;;;;3.78;2.83;;;26.00;45.50;;;;;;10488749;28;20197;-35
2023/06/16 11:20:58;;;;;;;5.18;2.95;;;26.00;46.10;;;;;;10481189;28;20065;-35
2023/06/16 11:26:07;;;;;;;4.32;3.15;;;26.90;45.30;;;;;;10452476;28;20044;-32
2023/06/16 11:31:10;;;;;;;4.85;2.40;;;27.40;47.90;;;;;;10445529;28;20487;-33
2023/06/16 11:36:16;;;;;;;6.65;2.60;;;27.20;41.40;;;;;;10460553;28;20122;-35
2023/06/16 11:41:21;;;;;;;4.38;2.25;;;26.40;42.20;;;;;;10450941;28;20539;-35
2023/06/16 11:46:25;;;;;;;3.47;2.28;;;27.10;51.50;;;;;;10450254;28;20599;-36
2023/06/16 11:51:28;;;;;;;7.55;2.47;;;28.50;49.10;;;;;;10451172;28;20048;-33
2023/06/16 11:56:33;;;;;;;3.40;2.25;;;29.10;45.60;;;;;;10432676;28;20053;-36
2023/06/16 12:01:35;;;;;;;5.63;2.80;;;29.20;45.40;;;;;;10452073;28;20148;-36
2023/06/16 12:06:39;;;;;;;4.47;1.95;;;29.10;46.40;;;;;;10455253;28;20128;-37
2023/06/16 12:11:46;;;;;;;3.90;2.30;;;28.70;45.90;;;;;;10445615;28;20517;-38
2023/06/16 12:16:50;;;;;;;3.58;2.38;;;28.50;45.50;;;;;;10448564;28;20420;-36
2023/06/16 12:21:53;;;;;;;5.15;2.03;;;29.00;47.90;;;;;;10455981;28;20049;-39
2023/06/16 12:26:56;;;;;;;3.97;2.30;;;29.20;47.40;;;;;;10453993;28;20489;-36
2023/06/16 12:32:00;;;;;;;8.20;2.15;;;29.20;48.90;;;;;;10460460;28;20045;-33
2023/06/16 12:37:03;;;;;;;4.05;2.00;;;29.90;45.50;;;;;;10471525;28;20055;-32
2023/06/16 12:42:08;;;;;;;2.63;1.98;;;29.70;44.00;;;;;;10460210;28;20467;-34
2023/06/16 12:47:10;;;;;;;2.38;2.03;;;29.10;37.80;;;;;;10457908;28;20150;-40
2023/06/16 12:52:14;;;;;;;3.70;2.05;;;30.10;47.80;;;;;;10463240;28;20136;-36
2023/06/16 12:57:19;;;;;;;2.38;1.75;;;30.30;45.50;;;;;;10453851;28;20056;-35
2023/06/16 13:02:21;;;;;;;2.50;2.10;;;30.80;46.00;;;;;;10454600;28;20049;-38
2023/06/16 13:07:23;;;;;;;2.63;1.73;;;31.10;41.70;;;;;;10459163;28;20067;-34
2023/06/16 13:12:26;;;;;;;3.78;2.10;;;30.90;46.80;;;;;;10455210;28;20102;-32
2023/06/16 13:17:28;;;;;;;3.72;1.92;;;30.70;42.70;;;;;;10452939;28;20123;-34
2023/06/16 13:22:30;;;;;;;2.97;2.00;;;31.10;42.00;;;;;;10476996;28;20140;-42
2023/06/16 13:27:34;;;;;;;3.50;1.90;;;30.80;45.50;;;;;;10494963;28;20051;-42
2023/06/16 13:32:35;;;;;;;5.22;1.88;;;31.40;42.20;;;;;;10491643;28;20135;-36
2023/06/16 13:37:37;;;;;;;2.60;2.08;;;30.80;41.40;;;;;;10487055;28;20044;-36
2023/06/16 13:42:40;;;;;;;2.30;1.40;;;31.30;46.30;;;;;;10490346;28;20048;-37
2023/06/16 13:47:42;;;;;;;1.88;1.58;;;31.90;45.00;;;;;;10497607;28;20626;-35
2023/06/16 13:52:44;;;;;;;2.63;1.73;;;32.20;42.10;;;;;;10490929;28;20049;-35
2023/06/16 13:57:49;;;;;;;2.55;1.70;;;32.30;42.50;;;;;;10490514;28;20098;-37
2023/06/16 14:02:53;;;;;;;2.15;1.30;;;32.00;44.00;;;;;;10490752;28;20413;-34
2023/06/16 14:07:55;;;;;;;4.40;1.92;;;32.40;43.60;;;;;;10490351;28;20469;-32
2023/06/16 14:12:58;;;;;;;1.80;1.23;;;32.10;41.00;;;;;;10496735;28;20049;-33
2023/06/16 14:18:00;;;;;;;5.63;2.22;;;32.50;38.10;;;;;;10490607;28;20097;-33
2023/06/16 14:23:02;;;;;;;2.78;1.50;;;32.50;40.00;;;;;;10461036;28;20496;-34
2023/06/16 14:28:05;;;;;;;2.05;1.50;;;32.90;41.10;;;;;;10456198;28;20119;-36
2023/06/16 14:33:08;;;;;;;2.30;1.48;;;33.10;42.50;;;;;;10452650;28;20131;-38
2023/06/16 14:38:10;;;;;;;1.50;1.40;;;33.30;38.20;;;;;;10447790;28;20079;-36
2023/06/16 14:43:13;;;;;;;2.67;1.50;;;33.50;41.00;;;;;;10451099;28;20072;-35
2023/06/16 14:48:15;;;;;;;1.63;1.20;;;33.60;42.60;;;;;;10456390;28;20079;-36
2023/06/16 14:53:17;;;;;;;2.40;1.52;;;33.50;43.10;;;;;;10451638;28;20515;-33
2023/06/16 14:58:21;;;;;;;10.38;1.80;;;33.90;40.80;;;;;;10458793;28;20068;-33
2023/06/16 15:03:23;;;;;;;2.20;1.27;;;33.90;40.00;;;;;;10451764;28;20496;-37
2023/06/16 15:08:25;;;;;;;4.25;1.75;;;34.00;42.30;;;;;;10446475;28;20198;-35
2023/06/16 15:13:28;;;;;;;3.35;1.80;;;34.10;41.60;;;;;;10446795;28;20437;-38
2023/06/16 15:18:30;;;;;;;3.65;2.30;;;34.50;42.90;;;;;;10435884;28;20053;-34
2023/06/16 15:23:32;;;;;;;4.38;3.03;;;34.50;42.50;;;;;;10482006;28;20049;-33
2023/06/16 15:28:35;;;;;;;2.50;1.85;;;34.80;41.30;;;;;;10486941;28;20098;-33
2023/06/16 15:33:37;;;;;;;3.00;1.80;;;35.00;41.30;;;;;;10486785;28;20086;-38
2023/06/16 15:38:39;;;;;;;2.60;1.42;;;34.60;32.70;;;;;;10486575;28;20446;-37
2023/06/16 15:43:42;;;;;;;1.50;1.40;;;35.00;40.50;;;;;;10486618;28;20537;-33
2023/06/16 15:48:45;;;;;;;3.20;1.70;;;35.30;39.40;;;;;;10486820;28;20596;-33
2023/06/16 15:53:47;;;;;;;4.00;1.92;;;35.30;35.90;;;;;;10494622;28;20170;-34
2023/06/16 15:58:50;;;;;;;2.53;1.60;;;35.60;39.40;;;;;;10482102;28;20076;-33
2023/06/16 16:03:52;;;;;;;6.20;4.50;;;35.20;42.10;;;;;;10486963;28;20139;-38
2023/06/16 16:08:54;;;;;;;4.75;3.17;;;35.90;41.30;;;;;;10486573;28;20095;-34
2023/06/16 16:13:57;;;;;;;1.92;1.80;;;36.20;42.90;;;;;;10487148;28;20102;-35
2023/06/16 16:18:59;;;;;;;3.30;1.73;;;35.90;43.10;;;;;;10487437;28;20079;-33
2023/06/16 16:24:01;;;;;;;1.88;1.77;;;36.10;42.70;;;;;;10452365;28;20059;-38
2023/06/16 16:29:06;;;;;;;1.85;1.65;;;36.30;39.60;;;;;;10455885;28;20123;-35
2023/06/16 16:34:08;;;;;;;2.15;1.88;;;36.70;41.10;;;;;;10456135;28;20095;-35
2023/06/16 16:39:10;;;;;;;2.92;1.77;;;36.40;44.10;;;;;;10456650;28;20265;-35
2023/06/16 16:44:14;;;;;;;3.78;1.75;;;36.50;38.30;;;;;;10444192;28;20083;-41
2023/06/16 16:49:16;;;;;;;3.85;2.08;;;36.50;43.00;;;;;;10447914;28;20072;-32
2023/06/16 16:54:18;;;;;;;5.53;1.85;;;36.30;44.10;;;;;;10446886;28;21028;-32
2023/06/16 16:59:22;;;;;;;2.33;1.98;;;36.50;42.60;;;;;;10452079;28;20076;-36
2023/06/16 17:04:23;;;;;;;4.53;2.10;;;36.70;44.50;;;;;;10453080;28;20393;-34
2023/06/16 17:09:25;;;;;;;5.90;1.90;;;37.20;40.60;;;;;;10451872;28;20597;-34
2023/06/16 17:14:28;;;;;;;2.90;1.95;;;37.30;43.20;;;;;;10452269;28;20077;-33
2023/06/16 17:19:30;;;;;;;3.90;2.00;;;37.00;40.20;;;;;;10460893;28;20052;-41
2023/06/16 17:24:32;;;;;;;5.50;2.28;;;36.90;45.10;;;;;;10481235;28;20469;-36
2023/06/16 17:29:35;;;;;;;3.03;1.80;;;36.70;44.10;;;;;;10492756;28;20060;-36
2023/06/16 17:34:37;;;;;;;5.68;1.98;;;37.10;41.20;;;;;;10495417;28;20055;-36
2023/06/16 17:39:39;;;;;;;10.32;1.90;;;37.20;42.40;;;;;;10492034;28;20040;-35
2023/06/16 17:44:42;;;;;;;1.88;1.55;;;36.90;45.30;;;;;;10491854;28;20048;-34
2023/06/16 17:49:44;;;;;;;3.47;2.00;;;36.90;45.80;;;;;;10490945;28;20146;-38
2023/06/16 17:54:46;;;;;;;2.17;1.48;;;36.90;41.10;;;;;;10491344;28;20139;-31
2023/06/16 17:59:52;;;;;;;1.75;1.50;;;36.80;44.70;;;;;;10497072;28;20080;-41
2023/06/16 18:04:54;;;;;;;2.13;1.50;;;36.70;44.10;;;;;;10491118;28;20128;-35
2023/06/16 18:09:56;;;;;;;1.50;1.38;;;36.80;44.20;;;;;;10489935;28;20048;-32
2023/06/16 18:14:59;;;;;;;2.88;1.63;;;37.00;43.90;;;;;;10489916;28;20080;-34
2023/06/16 18:20:01;;;;;;;3.30;1.50;;;37.00;44.00;;;;;;10494980;28;20523;-34
2023/06/16 18:25:03;;;;;;;2.17;1.23;;;37.00;43.00;;;;;;10489335;28;20109;-39
2023/06/16 18:30:08;;;;;;;1.90;1.58;;;36.90;42.50;;;;;;10490446;28;20083;-34
2023/06/16 18:35:10;;;;;;;4.05;1.40;;;36.80;43.20;;;;;;10492200;28;20090;-36
2023/06/16 18:40:13;;;;;;;1.48;1.15;;;36.70;43.30;;;;;;10489754;28;20044;-38
2023/06/16 18:45:18;;;;;;;2.10;1.77;;;36.70;43.30;;;;;;10487958;28;20134;-31
2023/06/16 18:50:20;;;;;;;2.75;1.50;;;36.70;43.10;;;;;;10479076;28;20049;-37
2023/06/16 18:55:22;;;;;;;2.20;1.17;;;36.60;43.20;;;;;;10490942;28;20097;-35
2023/06/16 19:00:26;;;;;;;2.08;1.38;;;36.40;43.60;;;;;;10494128;28;20127;-40
2023/06/16 19:05:28;;;;;;;12.70;4.88;;;36.40;42.60;;;;;;10488954;28;20072;-34
2023/06/16 19:10:30;;;;;;;20.52;8.27;;;36.20;42.20;;;;;;10479368;28;20050;-34
2023/06/16 19:15:33;;;;;;;30.73;11.68;;;36.20;43.00;;;;;;10477972;28;20048;-36
2023/06/16 19:20:35;;;;;;;39.30;13.75;;;36.20;42.30;;;;;;10475952;28;20052;-37
2023/06/16 19:25:37;;;;;;;41.05;13.85;;;35.80;41.50;;;;;;10448820;28;20082;-32
2023/06/16 19:30:40;;;;;;;41.45;10.25;;;35.50;41.40;;;;;;10446419;28;20045;-34
2023/06/16 19:35:42;;;;;;;32.22;8.45;;;35.40;41.10;;;;;;10445615;28;20055;-36
2023/06/16 19:40:45;;;;;;;23.40;5.70;;;35.30;40.70;;;;;;10446009;28;20049;-32
2023/06/16 19:45:48;;;;;;;11.52;3.78;;;35.10;40.70;;;;;;10442483;28;20666;-32
2023/06/16 19:50:50;;;;;;;22.95;3.30;;;35.20;41.10;;;;;;10444086;28;20083;-37
2023/06/16 19:55:52;;;;;;;6.43;2.58;;;34.90;40.50;;;;;;10446520;28;20861;-35
2023/06/16 20:00:56;;;;;;;6.03;2.10;;;34.80;40.20;;;;;;10454125;28;20076;-35
2023/06/16 20:05:58;;;;;;;9.30;2.63;;;34.60;39.80;;;;;;10451453;28;20079;-37
2023/06/16 20:11:02;;;;;;;9.90;2.00;;;34.50;39.80;;;;;;10458406;28;20052;-33
2023/06/16 20:16:11;;;;;;;9.30;2.13;;;34.40;39.60;;;;;;10448194;28;20049;-39
2023/06/16 20:21:13;;;;;;;11.40;2.58;;;34.30;39.70;;;;;;10441231;28;20045;-37
2023/06/16 20:26:15;;;;;;;3.35;1.63;;;34.30;39.50;;;;;;10488854;28;20068;-36
2023/06/16 20:31:19;;;;;;;6.00;2.45;;;34.10;39.40;;;;;;10500791;28;20048;-35
2023/06/16 20:36:21;;;;;;;3.25;1.95;;;34.00;39.40;;;;;;10493555;28;20056;-32
2023/06/16 20:41:28;;;;;;;6.53;1.75;;;33.90;39.50;;;;;;10483927;28;20123;-32
2023/06/16 20:46:31;;;;;;;2.55;2.00;;;33.70;39.70;;;;;;10495192;28;20147;-34
2023/06/16 20:51:33;;;;;;;6.25;1.98;;;33.70;39.50;;;;;;10497943;28;20044;-43
2023/06/16 20:56:35;;;;;;;4.00;2.50;;;33.60;39.80;;;;;;10495110;28;20098;-35
2023/06/16 21:01:42;;;;;;;2.17;1.92;;;33.50;39.90;;;;;;10495208;28;20040;-36
2023/06/16 21:06:45;;;;;;;2.70;1.90;;;33.40;39.80;;;;;;10491808;28;20045;-39
2023/06/16 21:11:46;;;;;;;4.05;1.80;;;33.30;39.70;;;;;;10492410;28;20049;-36
2023/06/16 21:16:50;;;;;;;3.78;2.22;;;33.20;39.80;;;;;;10492096;28;20135;-32
2023/06/16 21:21:52;;;;;;;3.72;1.60;;;33.10;40.10;;;;;;10473674;28;20114;-31
2023/06/16 21:26:55;;;;;;;3.22;1.80;;;33.10;39.90;;;;;;10449488;28;20049;-32
2023/06/16 21:31:59;;;;;;;2.35;1.75;;;32.90;40.10;;;;;;10444883;28;20048;-34
2023/06/16 21:37:02;;;;;;;3.13;1.73;;;32.80;40.10;;;;;;10452759;28;20567;-37
2023/06/16 21:42:04;;;;;;;2.22;1.90;;;32.70;40.30;;;;;;10446713;28;20072;-38
2023/06/16 21:47:08;;;;;;;2.00;1.80;;;32.60;39.90;;;;;;10419399;28;20059;-35
2023/06/16 21:52:10;;;;;;;2.97;1.70;;;32.60;40.20;;;;;;10448372;28;20041;-36
2023/06/16 21:57:12;;;;;;;2.80;1.90;;;32.50;40.20;;;;;;10441151;28;20061;-34
2023/06/16 22:02:17;;;;;;;2.10;1.50;;;32.40;40.30;;;;;;10456771;28;20041;-32
2023/06/16 22:07:20;;;;;;;3.22;1.70;;;32.30;40.10;;;;;;10458972;28;20374;-33
2023/06/16 22:12:25;;;;;;;1.80;1.42;;;32.20;40.30;;;;;;10449990;28;20052;-32
2023/06/16 22:17:28;;;;;;;2.38;1.67;;;32.10;40.60;;;;;;10460583;28;20048;-33
2023/06/16 22:22:31;;;;;;;3.35;1.33;;;32.00;40.20;;;;;;10476391;28;20049;-35
2023/06/16 22:27:33;;;;;;;1.65;1.50;;;32.00;40.20;;;;;;10490010;28;20045;-37
2023/06/16 22:32:37;;;;;;;3.05;1.73;;;31.90;40.20;;;;;;10489262;28;20512;-37
2023/06/16 22:37:41;;;;;;;2.65;1.50;;;31.80;40.40;;;;;;10489122;28;20048;-37
2023/06/16 22:42:43;;;;;;;2.25;1.95;;;31.80;40.50;;;;;;10491651;28;20515;-31
2023/06/16 22:47:46;;;;;;;3.00;1.40;;;31.70;40.40;;;;;;10486717;28;20105;-41
2023/06/16 22:52:48;;;;;;;2.67;1.48;;;31.60;40.30;;;;;;10485209;28;20114;-37
2023/06/16 22:57:50;;;;;;;1.75;1.33;;;31.50;40.40;;;;;;10481734;28;20040;-38
2023/06/16 23:02:53;;;;;;;1.83;1.63;;;31.50;40.40;;;;;;10485406;28;20143;-39
2023/06/16 23:07:55;;;;;;;2.72;1.55;;;31.40;40.40;;;;;;10486801;28;20669;-37
2023/06/16 23:12:57;;;;;;;1.77;1.42;;;31.40;40.70;;;;;;10483920;28;20040;-36
2023/06/16 23:18:00;;;;;;;1.73;1.52;;;31.30;40.50;;;;;;10485927;28;20080;-33
2023/06/16 23:23:03;;;;;;;2.60;1.70;;;31.20;41.00;;;;;;10457251;28;20060;-34
2023/06/16 23:28:05;;;;;;;3.83;1.63;;;31.10;40.70;;;;;;10444766;28;20076;-34
2023/06/16 23:33:09;;;;;;;3.20;1.90;;;31.10;40.80;;;;;;10453361;28;20037;-34
2023/06/16 23:38:11;;;;;;;2.53;1.67;;;31.00;41.20;;;;;;10455861;28;20126;-35
2023/06/16 23:43:12;;;;;;;2.10;1.83;;;31.00;41.50;;;;;;10452770;28;20057;-33
2023/06/16 23:48:16;;;;;;;4.60;2.08;;;30.90;41.00;;;;;;10447294;28;20094;-33
2023/06/16 23:53:17;;;;;;;4.47;1.73;;;30.90;41.20;;;;;;10454427;28;20037;-35
2023/06/16 23:58:19;;;;;;;2.28;1.63;;;30.80;41.10;;;;;;10451682;28;20144;-32
